This is the latest recevied weather packets stored in our database for station/object K0QED. If no packets are shown the sender has not sent any weather packets the latest 10 day(s).
| Time | Temp. | Humidity | Pressure | Rain* | Wind** | Luminosity | Snow |
|---|---|---|---|---|---|---|---|
| 1777238855 | 11.11° C | 54% | 1005 hPa | 0 mm | - | 50 W/m² | - |
| 1777238552 | 13.33° C | 44% | 1005.1 hPa | 0 mm | - | 85 W/m² | - |
| 1777238248 | 13.33° C | 41% | 1005.4 hPa | 0 mm | - | 159 W/m² | - |
| 1777237946 | 13.33° C | 42% | 1005.5 hPa | 0 mm | - | 196 W/m² | - |
| 1777237641 | 13.89° C | 42% | 1005.2 hPa | 0 mm | - | 215 W/m² | - |
| 1777237339 | 15.56° C | 39% | 1005.6 hPa | 0 mm | - | 241 W/m² | - |
| 1777237037 | 14.44° C | 40% | 1005.5 hPa | 0 mm | - | 720 W/m² | - |
| 1777236734 | 15.56° C | 40% | 1005.6 hPa | 0 mm | - | 207 W/m² | - |
| 1777236433 | 15° C | 40% | 1005.6 hPa | 0 mm | - | 537 W/m² | - |
| 1777236130 | 15° C | 41% | 1005.6 hPa | 0 mm | - | 560 W/m² | - |
| 1777235826 | 15° C | 43% | 1005.5 hPa | 0 mm | - | 430 W/m² | - |
| 1777235523 | 15° C | 43% | 1005.6 hPa | 0 mm | - | 672 W/m² | - |
| 1777235219 | 14.44° C | 45% | 1005.7 hPa | 0 mm | - | 734 W/m² | - |
| 1777234915 | 14.44° C | 46% | 1005.5 hPa | 0 mm | - | 644 W/m² | - |
| 1777234611 | 15° C | 45% | 1005.5 hPa | 0 mm | - | 612 W/m² | - |
| 1777234310 | 14.44° C | 44% | 1005.4 hPa | 0 mm | - | 659 W/m² | - |
| 1777234007 | 14.44° C | 46% | 1005.6 hPa | 0 mm | - | 636 W/m² | - |
| 1777233704 | 15° C | 45% | 1005.9 hPa | 0 mm | - | 621 W/m² | - |
| 1777233399 | 15° C | 45% | 1006.1 hPa | 0 mm | - | 644 W/m² | - |
| 1777233094 | 15° C | 45% | 1005.9 hPa | 0 mm | - | 668 W/m² | - |
| 1777232790 | 14.44° C | 48% | 1006 hPa | 0 mm | - | 691 W/m² | - |
| 1777232489 | 15° C | 47% | 1005.9 hPa | 0 mm | - | 511 W/m² | - |
| 1777232187 | 13.89° C | 48% | 1006 hPa | 0 mm | - | 819 W/m² | - |
| 1777231883 | 14.44° C | 47% | 1006.1 hPa | 0 mm | - | 714 W/m² | - |
| 1777231580 | 13.89° C | 46% | 1005.9 hPa | 0 mm | - | 737 W/m² | - |
* Rain latest hour (hover to see other rain measurements)
** Current wind speed in m/s (hover to see current wind gust speed)